sensor_id;sensor_type;location;lat;lon;timestamp;temperature;humidity
17174;DHT22;8702;48.130;-1.696;2022-08-16T00:01:30;21.90;99.90
17174;DHT22;8702;48.130;-1.696;2022-08-16T00:03:57;22.00;99.90
17174;DHT22;8702;48.130;-1.696;2022-08-16T00:06:25;22.00;99.90
17174;DHT22;8702;48.130;-1.696;2022-08-16T00:08:53;22.00;99.90
17174;DHT22;8702;48.130;-1.696;2022-08-16T00:11:20;22.00;99.90
17174;DHT22;8702;48.130;-1.696;2022-08-16T00:13:48;21.90;99.90
17174;DHT22;8702;48.130;-1.696;2022-08-16T00:16:16;21.90;99.90
17174;DHT22;8702;48.130;-1.696;2022-08-16T00:18:44;21.90;99.90
17174;DHT22;8702;48.130;-1.696;2022-08-16T00:21:11;21.90;99.90
17174;DHT22;8702;48.130;-1.696;2022-08-16T00:23:38;21.90;99.90
17174;DHT22;8702;48.130;-1.696;2022-08-16T00:26:05;21.80;99.90
17174;DHT22;8702;48.130;-1.696;2022-08-16T00:28:32;21.90;99.90
17174;DHT22;8702;48.130;-1.696;2022-08-16T00:30:59;21.90;99.90
17174;DHT22;8702;48.130;-1.696;2022-08-16T00:33:26;21.90;99.90
17174;DHT22;8702;48.130;-1.696;2022-08-16T00:35:55;21.90;99.90
17174;DHT22;8702;48.130;-1.696;2022-08-16T00:38:22;21.90;99.90
17174;DHT22;8702;48.130;-1.696;2022-08-16T00:40:51;21.80;99.90
17174;DHT22;8702;48.130;-1.696;2022-08-16T00:43:21;21.80;99.90
17174;DHT22;8702;48.130;-1.696;2022-08-16T00:45:52;21.70;99.90
17174;DHT22;8702;48.130;-1.696;2022-08-16T00:48:23;21.60;99.90
17174;DHT22;8702;48.130;-1.696;2022-08-16T00:50:50;21.60;99.90
17174;DHT22;8702;48.130;-1.696;2022-08-16T00:53:19;21.60;99.90
17174;DHT22;8702;48.130;-1.696;2022-08-16T00:55:51;21.60;99.90
17174;DHT22;8702;48.130;-1.696;2022-08-16T00:58:22;21.50;99.90
17174;DHT22;8702;48.130;-1.696;2022-08-16T01:00:49;21.50;99.90
17174;DHT22;8702;48.130;-1.696;2022-08-16T01:03:19;21.50;99.90
17174;DHT22;8702;48.130;-1.696;2022-08-16T01:05:47;21.40;99.90
17174;DHT22;8702;48.130;-1.696;2022-08-16T01:08:17;21.40;99.90
17174;DHT22;8702;48.130;-1.696;2022-08-16T01:10:46;21.30;99.90
17174;DHT22;8702;48.130;-1.696;2022-08-16T01:13:17;21.20;99.90
17174;DHT22;8702;48.130;-1.696;2022-08-16T01:15:48;21.20;99.90
17174;DHT22;8702;48.130;-1.696;2022-08-16T01:18:19;21.20;99.90
17174;DHT22;8702;48.130;-1.696;2022-08-16T01:20:52;21.20;99.90
17174;DHT22;8702;48.130;-1.696;2022-08-16T01:23:25;21.10;99.90
17174;DHT22;8702;48.130;-1.696;2022-08-16T01:25:56;21.10;99.90
17174;DHT22;8702;48.130;-1.696;2022-08-16T01:28:25;21.10;99.90
17174;DHT22;8702;48.130;-1.696;2022-08-16T01:30:55;21.20;99.90
17174;DHT22;8702;48.130;-1.696;2022-08-16T01:33:23;21.20;99.90
17174;DHT22;8702;48.130;-1.696;2022-08-16T01:35:53;21.10;99.90
17174;DHT22;8702;48.130;-1.696;2022-08-16T01:38:23;21.10;99.90
17174;DHT22;8702;48.130;-1.696;2022-08-16T01:40:53;21.10;99.90
17174;DHT22;8702;48.130;-1.696;2022-08-16T01:43:22;21.10;99.90
17174;DHT22;8702;48.130;-1.696;2022-08-16T01:45:53;21.10;99.90
17174;DHT22;8702;48.130;-1.696;2022-08-16T01:48:21;21.10;99.90
17174;DHT22;8702;48.130;-1.696;2022-08-16T01:50:50;21.10;99.90
17174;DHT22;8702;48.130;-1.696;2022-08-16T01:53:18;21.10;99.90
17174;DHT22;8702;48.130;-1.696;2022-08-16T01:55:45;21.00;99.90
17174;DHT22;8702;48.130;-1.696;2022-08-16T01:58:12;21.00;99.90
17174;DHT22;8702;48.130;-1.696;2022-08-16T02:00:41;21.00;99.90
17174;DHT22;8702;48.130;-1.696;2022-08-16T02:03:08;21.00;99.90
17174;DHT22;8702;48.130;-1.696;2022-08-16T02:05:36;21.00;99.90
17174;DHT22;8702;48.130;-1.696;2022-08-16T02:08:04;21.10;99.90
17174;DHT22;8702;48.130;-1.696;2022-08-16T02:10:32;21.00;99.90
17174;DHT22;8702;48.130;-1.696;2022-08-16T02:13:00;21.00;99.90
17174;DHT22;8702;48.130;-1.696;2022-08-16T02:15:28;21.00;99.90
17174;DHT22;8702;48.130;-1.696;2022-08-16T02:17:58;21.10;99.90
17174;DHT22;8702;48.130;-1.696;2022-08-16T02:20:26;21.10;99.90
17174;DHT22;8702;48.130;-1.696;2022-08-16T02:22:53;21.10;99.90
17174;DHT22;8702;48.130;-1.696;2022-08-16T02:25:21;21.10;99.90
17174;DHT22;8702;48.130;-1.696;2022-08-16T02:27:48;21.10;99.90
17174;DHT22;8702;48.130;-1.696;2022-08-16T02:30:18;21.10;99.90
17174;DHT22;8702;48.130;-1.696;2022-08-16T02:32:46;21.10;99.90
17174;DHT22;8702;48.130;-1.696;2022-08-16T02:35:15;21.10;99.90
17174;DHT22;8702;48.130;-1.696;2022-08-16T02:37:42;21.10;99.90
17174;DHT22;8702;48.130;-1.696;2022-08-16T02:40:11;21.10;99.90
17174;DHT22;8702;48.130;-1.696;2022-08-16T02:42:38;21.20;99.90
17174;DHT22;8702;48.130;-1.696;2022-08-16T02:45:06;21.20;99.90
17174;DHT22;8702;48.130;-1.696;2022-08-16T02:47:33;21.20;99.90
17174;DHT22;8702;48.130;-1.696;2022-08-16T02:50:00;21.10;99.90
17174;DHT22;8702;48.130;-1.696;2022-08-16T02:52:28;21.10;99.90
17174;DHT22;8702;48.130;-1.696;2022-08-16T02:54:55;20.90;99.90
17174;DHT22;8702;48.130;-1.696;2022-08-16T02:57:23;20.90;99.90
17174;DHT22;8702;48.130;-1.696;2022-08-16T02:59:50;20.90;99.90
17174;DHT22;8702;48.130;-1.696;2022-08-16T03:02:17;20.90;99.90
17174;DHT22;8702;48.130;-1.696;2022-08-16T03:04:44;20.90;99.90
17174;DHT22;8702;48.130;-1.696;2022-08-16T03:07:11;20.90;99.90
17174;DHT22;8702;48.130;-1.696;2022-08-16T03:09:41;20.90;99.90
17174;DHT22;8702;48.130;-1.696;2022-08-16T03:12:08;20.90;99.90
17174;DHT22;8702;48.130;-1.696;2022-08-16T03:14:36;20.90;99.90
17174;DHT22;8702;48.130;-1.696;2022-08-16T03:17:03;21.00;99.90
17174;DHT22;8702;48.130;-1.696;2022-08-16T03:19:32;20.90;99.90
17174;DHT22;8702;48.130;-1.696;2022-08-16T03:21:59;20.80;99.90
17174;DHT22;8702;48.130;-1.696;2022-08-16T03:24:26;20.70;99.90
17174;DHT22;8702;48.130;-1.696;2022-08-16T03:26:57;20.80;99.90
17174;DHT22;8702;48.130;-1.696;2022-08-16T03:29:24;20.90;99.90
17174;DHT22;8702;48.130;-1.696;2022-08-16T03:31:52;20.90;99.90
17174;DHT22;8702;48.130;-1.696;2022-08-16T03:34:19;20.90;99.90
17174;DHT22;8702;48.130;-1.696;2022-08-16T03:36:46;20.90;99.90
17174;DHT22;8702;48.130;-1.696;2022-08-16T03:39:13;20.90;99.90
17174;DHT22;8702;48.130;-1.696;2022-08-16T03:41:40;20.90;99.90
17174;DHT22;8702;48.130;-1.696;2022-08-16T03:44:08;21.00;99.90
17174;DHT22;8702;48.130;-1.696;2022-08-16T03:46:35;21.00;99.90
17174;DHT22;8702;48.130;-1.696;2022-08-16T03:49:03;21.00;99.90
17174;DHT22;8702;48.130;-1.696;2022-08-16T03:51:31;21.00;99.90
17174;DHT22;8702;48.130;-1.696;2022-08-16T03:53:58;20.90;99.90
17174;DHT22;8702;48.130;-1.696;2022-08-16T03:56:25;21.00;99.90
17174;DHT22;8702;48.130;-1.696;2022-08-16T03:58:52;20.90;99.90
17174;DHT22;8702;48.130;-1.696;2022-08-16T04:01:23;21.00;99.90
17174;DHT22;8702;48.130;-1.696;2022-08-16T04:03:51;21.00;99.90
17174;DHT22;8702;48.130;-1.696;2022-08-16T04:06:19;21.00;99.90
17174;DHT22;8702;48.130;-1.696;2022-08-16T04:08:46;21.00;99.90
17174;DHT22;8702;48.130;-1.696;2022-08-16T04:11:14;21.00;99.90
17174;DHT22;8702;48.130;-1.696;2022-08-16T04:13:41;21.00;99.90
17174;DHT22;8702;48.130;-1.696;2022-08-16T04:16:09;21.00;99.90
17174;DHT22;8702;48.130;-1.696;2022-08-16T04:18:38;21.00;99.90
17174;DHT22;8702;48.130;-1.696;2022-08-16T04:21:07;20.90;99.90
17174;DHT22;8702;48.130;-1.696;2022-08-16T04:23:35;20.90;99.90
17174;DHT22;8702;48.130;-1.696;2022-08-16T04:26:03;20.90;99.90
17174;DHT22;8702;48.130;-1.696;2022-08-16T04:28:30;20.90;99.90
17174;DHT22;8702;48.130;-1.696;2022-08-16T04:30:57;20.90;99.90
17174;DHT22;8702;48.130;-1.696;2022-08-16T04:33:24;20.80;99.90
17174;DHT22;8702;48.130;-1.696;2022-08-16T04:35:53;20.60;99.90
17174;DHT22;8702;48.130;-1.696;2022-08-16T04:38:21;20.60;99.90
17174;DHT22;8702;48.130;-1.696;2022-08-16T04:40:48;20.60;99.90
17174;DHT22;8702;48.130;-1.696;2022-08-16T04:43:15;20.60;99.90
17174;DHT22;8702;48.130;-1.696;2022-08-16T04:45:43;20.50;99.90
17174;DHT22;8702;48.130;-1.696;2022-08-16T04:48:10;20.60;99.90
17174;DHT22;8702;48.130;-1.696;2022-08-16T04:50:37;20.70;99.90
17174;DHT22;8702;48.130;-1.696;2022-08-16T04:53:05;20.70;99.90
17174;DHT22;8702;48.130;-1.696;2022-08-16T04:55:32;20.70;99.90
17174;DHT22;8702;48.130;-1.696;2022-08-16T04:58:00;20.70;99.90
17174;DHT22;8702;48.130;-1.696;2022-08-16T05:00:29;20.80;99.90
17174;DHT22;8702;48.130;-1.696;2022-08-16T05:03:00;20.80;99.90
17174;DHT22;8702;48.130;-1.696;2022-08-16T05:05:29;20.80;99.90
17174;DHT22;8702;48.130;-1.696;2022-08-16T05:07:56;20.70;99.90
17174;DHT22;8702;48.130;-1.696;2022-08-16T05:10:25;20.70;99.90
17174;DHT22;8702;48.130;-1.696;2022-08-16T05:12:52;20.70;99.90
17174;DHT22;8702;48.130;-1.696;2022-08-16T05:15:19;20.70;99.90
17174;DHT22;8702;48.130;-1.696;2022-08-16T05:17:46;20.70;99.90
17174;DHT22;8702;48.130;-1.696;2022-08-16T05:20:14;20.80;99.90
17174;DHT22;8702;48.130;-1.696;2022-08-16T05:22:41;20.80;99.90
17174;DHT22;8702;48.130;-1.696;2022-08-16T05:25:10;20.80;99.90
17174;DHT22;8702;48.130;-1.696;2022-08-16T05:27:39;20.80;99.90
17174;DHT22;8702;48.130;-1.696;2022-08-16T05:30:07;20.90;99.90
17174;DHT22;8702;48.130;-1.696;2022-08-16T05:32:35;20.80;99.90
17174;DHT22;8702;48.130;-1.696;2022-08-16T05:35:03;20.80;99.90
17174;DHT22;8702;48.130;-1.696;2022-08-16T05:37:32;20.80;99.90
17174;DHT22;8702;48.130;-1.696;2022-08-16T05:39:59;20.80;99.90
17174;DHT22;8702;48.130;-1.696;2022-08-16T05:42:26;20.80;99.90
17174;DHT22;8702;48.130;-1.696;2022-08-16T05:44:54;20.90;99.90
17174;DHT22;8702;48.130;-1.696;2022-08-16T05:47:21;20.90;99.90
17174;DHT22;8702;48.130;-1.696;2022-08-16T05:49:48;20.90;99.90
17174;DHT22;8702;48.130;-1.696;2022-08-16T05:52:15;20.90;99.90
17174;DHT22;8702;48.130;-1.696;2022-08-16T05:54:43;21.00;99.90
17174;DHT22;8702;48.130;-1.696;2022-08-16T05:57:10;21.00;99.90
17174;DHT22;8702;48.130;-1.696;2022-08-16T05:59:37;21.00;99.90
17174;DHT22;8702;48.130;-1.696;2022-08-16T06:02:06;21.10;99.90
17174;DHT22;8702;48.130;-1.696;2022-08-16T06:04:33;21.10;99.90
17174;DHT22;8702;48.130;-1.696;2022-08-16T06:07:00;21.10;99.90
17174;DHT22;8702;48.130;-1.696;2022-08-16T06:09:30;21.10;99.90
17174;DHT22;8702;48.130;-1.696;2022-08-16T06:11:57;21.20;99.90
17174;DHT22;8702;48.130;-1.696;2022-08-16T06:14:26;21.20;99.90
17174;DHT22;8702;48.130;-1.696;2022-08-16T06:16:53;21.20;99.90
17174;DHT22;8702;48.130;-1.696;2022-08-16T06:19:21;21.20;99.90
17174;DHT22;8702;48.130;-1.696;2022-08-16T06:21:48;21.20;99.90
17174;DHT22;8702;48.130;-1.696;2022-08-16T06:24:15;21.30;99.90
17174;DHT22;8702;48.130;-1.696;2022-08-16T06:26:42;21.30;99.90
17174;DHT22;8702;48.130;-1.696;2022-08-16T06:29:09;21.30;99.90
17174;DHT22;8702;48.130;-1.696;2022-08-16T06:31:36;21.30;99.90
17174;DHT22;8702;48.130;-1.696;2022-08-16T06:34:03;21.30;99.90
17174;DHT22;8702;48.130;-1.696;2022-08-16T06:36:32;21.40;99.90
17174;DHT22;8702;48.130;-1.696;2022-08-16T06:38:59;21.40;99.90
17174;DHT22;8702;48.130;-1.696;2022-08-16T06:41:26;21.30;99.90
17174;DHT22;8702;48.130;-1.696;2022-08-16T06:43:53;21.30;99.90
17174;DHT22;8702;48.130;-1.696;2022-08-16T06:46:23;21.40;99.90
17174;DHT22;8702;48.130;-1.696;2022-08-16T06:48:51;21.40;99.90
17174;DHT22;8702;48.130;-1.696;2022-08-16T06:51:18;21.40;99.90
17174;DHT22;8702;48.130;-1.696;2022-08-16T06:53:47;21.40;99.90
17174;DHT22;8702;48.130;-1.696;2022-08-16T06:56:14;21.40;99.90
17174;DHT22;8702;48.130;-1.696;2022-08-16T06:58:41;21.40;99.90
17174;DHT22;8702;48.130;-1.696;2022-08-16T07:01:08;21.30;99.90
17174;DHT22;8702;48.130;-1.696;2022-08-16T07:03:35;21.30;99.90
17174;DHT22;8702;48.130;-1.696;2022-08-16T07:06:03;21.30;99.90
17174;DHT22;8702;48.130;-1.696;2022-08-16T07:08:30;21.30;99.90
17174;DHT22;8702;48.130;-1.696;2022-08-16T07:10:59;21.30;99.90
17174;DHT22;8702;48.130;-1.696;2022-08-16T07:13:26;21.30;99.90
17174;DHT22;8702;48.130;-1.696;2022-08-16T07:15:54;21.30;99.90
17174;DHT22;8702;48.130;-1.696;2022-08-16T07:18:21;21.30;99.90
17174;DHT22;8702;48.130;-1.696;2022-08-16T07:20:48;21.30;99.90
17174;DHT22;8702;48.130;-1.696;2022-08-16T07:23:16;21.30;99.90
17174;DHT22;8702;48.130;-1.696;2022-08-16T07:25:43;21.30;99.90
17174;DHT22;8702;48.130;-1.696;2022-08-16T07:28:13;21.30;99.90
17174;DHT22;8702;48.130;-1.696;2022-08-16T07:30:42;21.40;99.90
17174;DHT22;8702;48.130;-1.696;2022-08-16T07:33:10;21.30;99.90
17174;DHT22;8702;48.130;-1.696;2022-08-16T07:35:39;21.80;99.90
17174;DHT22;8702;48.130;-1.696;2022-08-16T07:38:07;21.40;99.90
17174;DHT22;8702;48.130;-1.696;2022-08-16T07:40:35;21.40;99.90
17174;DHT22;8702;48.130;-1.696;2022-08-16T07:43:03;21.30;99.90
17174;DHT22;8702;48.130;-1.696;2022-08-16T07:45:32;21.30;99.90
17174;DHT22;8702;48.130;-1.696;2022-08-16T07:47:59;21.40;99.90
17174;DHT22;8702;48.130;-1.696;2022-08-16T07:50:26;21.40;99.90
17174;DHT22;8702;48.130;-1.696;2022-08-16T07:52:53;21.40;99.90
17174;DHT22;8702;48.130;-1.696;2022-08-16T07:55:20;21.30;99.90
17174;DHT22;8702;48.130;-1.696;2022-08-16T07:57:47;21.40;99.90
17174;DHT22;8702;48.130;-1.696;2022-08-16T08:00:15;21.40;99.90
17174;DHT22;8702;48.130;-1.696;2022-08-16T08:02:44;21.50;99.90
17174;DHT22;8702;48.130;-1.696;2022-08-16T08:05:11;21.50;99.90
17174;DHT22;8702;48.130;-1.696;2022-08-16T08:07:38;21.40;99.90
17174;DHT22;8702;48.130;-1.696;2022-08-16T08:10:06;21.30;99.90
17174;DHT22;8702;48.130;-1.696;2022-08-16T08:12:34;21.10;99.90
17174;DHT22;8702;48.130;-1.696;2022-08-16T08:15:02;21.00;99.90
17174;DHT22;8702;48.130;-1.696;2022-08-16T08:17:30;20.80;99.90
17174;DHT22;8702;48.130;-1.696;2022-08-16T08:19:59;20.60;99.90
17174;DHT22;8702;48.130;-1.696;2022-08-16T08:22:27;20.60;99.90
17174;DHT22;8702;48.130;-1.696;2022-08-16T08:24:54;20.70;99.90
17174;DHT22;8702;48.130;-1.696;2022-08-16T08:27:21;20.70;99.90
17174;DHT22;8702;48.130;-1.696;2022-08-16T08:29:48;20.80;99.90
17174;DHT22;8702;48.130;-1.696;2022-08-16T08:32:15;20.90;99.90
17174;DHT22;8702;48.130;-1.696;2022-08-16T08:34:45;20.70;99.90
17174;DHT22;8702;48.130;-1.696;2022-08-16T08:37:14;21.00;99.90
17174;DHT22;8702;48.130;-1.696;2022-08-16T08:39:41;21.10;99.90
17174;DHT22;8702;48.130;-1.696;2022-08-16T08:42:08;21.10;99.90
17174;DHT22;8702;48.130;-1.696;2022-08-16T08:44:35;21.10;99.90
17174;DHT22;8702;48.130;-1.696;2022-08-16T08:47:03;21.10;99.90
17174;DHT22;8702;48.130;-1.696;2022-08-16T08:49:32;21.10;99.90
17174;DHT22;8702;48.130;-1.696;2022-08-16T08:51:59;21.10;99.90
17174;DHT22;8702;48.130;-1.696;2022-08-16T08:54:28;21.10;99.90
17174;DHT22;8702;48.130;-1.696;2022-08-16T08:56:55;21.10;99.90
17174;DHT22;8702;48.130;-1.696;2022-08-16T08:59:22;21.00;99.90
17174;DHT22;8702;48.130;-1.696;2022-08-16T09:01:50;20.90;99.90
17174;DHT22;8702;48.130;-1.696;2022-08-16T09:04:17;20.80;99.90
17174;DHT22;8702;48.130;-1.696;2022-08-16T09:06:44;20.70;99.90
17174;DHT22;8702;48.130;-1.696;2022-08-16T09:09:11;20.70;99.90
17174;DHT22;8702;48.130;-1.696;2022-08-16T09:11:40;20.70;99.90
17174;DHT22;8702;48.130;-1.696;2022-08-16T09:14:09;20.60;99.90
17174;DHT22;8702;48.130;-1.696;2022-08-16T09:16:36;20.60;99.90
17174;DHT22;8702;48.130;-1.696;2022-08-16T09:19:03;20.60;99.90
17174;DHT22;8702;48.130;-1.696;2022-08-16T09:21:30;20.60;99.90
17174;DHT22;8702;48.130;-1.696;2022-08-16T09:23:57;20.70;99.90
17174;DHT22;8702;48.130;-1.696;2022-08-16T09:26:24;20.70;99.90
17174;DHT22;8702;48.130;-1.696;2022-08-16T09:28:53;20.60;99.90
17174;DHT22;8702;48.130;-1.696;2022-08-16T09:31:20;20.60;99.90
17174;DHT22;8702;48.130;-1.696;2022-08-16T09:33:50;20.60;99.90
17174;DHT22;8702;48.130;-1.696;2022-08-16T09:36:18;20.80;99.90
17174;DHT22;8702;48.130;-1.696;2022-08-16T09:38:45;20.80;99.90
17174;DHT22;8702;48.130;-1.696;2022-08-16T09:41:12;20.90;99.90
17174;DHT22;8702;48.130;-1.696;2022-08-16T09:43:40;21.00;99.90
17174;DHT22;8702;48.130;-1.696;2022-08-16T09:46:09;21.10;99.90
17174;DHT22;8702;48.130;-1.696;2022-08-16T09:48:37;21.10;99.90
17174;DHT22;8702;48.130;-1.696;2022-08-16T09:51:07;21.20;99.90
17174;DHT22;8702;48.130;-1.696;2022-08-16T09:53:35;21.20;99.90
17174;DHT22;8702;48.130;-1.696;2022-08-16T09:56:04;21.30;99.90
17174;DHT22;8702;48.130;-1.696;2022-08-16T09:58:34;21.30;99.90
17174;DHT22;8702;48.130;-1.696;2022-08-16T10:01:01;21.40;99.90
17174;DHT22;8702;48.130;-1.696;2022-08-16T10:03:29;21.50;99.90
17174;DHT22;8702;48.130;-1.696;2022-08-16T10:05:56;21.60;99.90
17174;DHT22;8702;48.130;-1.696;2022-08-16T10:08:23;21.70;99.90
17174;DHT22;8702;48.130;-1.696;2022-08-16T10:10:50;21.80;99.90
17174;DHT22;8702;48.130;-1.696;2022-08-16T10:13:35;21.90;99.90
17174;DHT22;8702;48.130;-1.696;2022-08-16T10:16:02;21.90;99.90
17174;DHT22;8702;48.130;-1.696;2022-08-16T10:18:31;22.00;99.90
17174;DHT22;8702;48.130;-1.696;2022-08-16T10:21:00;21.90;99.90
17174;DHT22;8702;48.130;-1.696;2022-08-16T10:23:27;21.80;99.90
17174;DHT22;8702;48.130;-1.696;2022-08-16T10:25:55;21.80;99.90
17174;DHT22;8702;48.130;-1.696;2022-08-16T10:28:22;21.80;99.90
17174;DHT22;8702;48.130;-1.696;2022-08-16T10:30:49;21.80;99.90
17174;DHT22;8702;48.130;-1.696;2022-08-16T10:33:16;21.90;99.90
17174;DHT22;8702;48.130;-1.696;2022-08-16T10:35:45;22.10;99.90
17174;DHT22;8702;48.130;-1.696;2022-08-16T10:38:13;22.20;99.90
17174;DHT22;8702;48.130;-1.696;2022-08-16T10:40:41;22.10;99.90
17174;DHT22;8702;48.130;-1.696;2022-08-16T10:43:08;22.20;99.90
17174;DHT22;8702;48.130;-1.696;2022-08-16T10:45:36;22.40;99.90
17174;DHT22;8702;48.130;-1.696;2022-08-16T10:48:04;22.40;99.90
17174;DHT22;8702;48.130;-1.696;2022-08-16T10:50:32;22.50;99.90
17174;DHT22;8702;48.130;-1.696;2022-08-16T10:53:01;22.50;99.90
17174;DHT22;8702;48.130;-1.696;2022-08-16T10:55:32;22.60;99.90
17174;DHT22;8702;48.130;-1.696;2022-08-16T10:58:02;22.60;99.90
17174;DHT22;8702;48.130;-1.696;2022-08-16T11:00:29;22.70;99.90
17174;DHT22;8702;48.130;-1.696;2022-08-16T11:02:57;22.60;99.90
17174;DHT22;8702;48.130;-1.696;2022-08-16T11:05:26;22.70;99.90
17174;DHT22;8702;48.130;-1.696;2022-08-16T11:07:53;22.80;99.90
17174;DHT22;8702;48.130;-1.696;2022-08-16T11:10:24;22.90;99.90
17174;DHT22;8702;48.130;-1.696;2022-08-16T11:12:52;22.90;99.90
17174;DHT22;8702;48.130;-1.696;2022-08-16T11:15:19;22.90;99.90
17174;DHT22;8702;48.130;-1.696;2022-08-16T11:17:47;22.80;99.90
17174;DHT22;8702;48.130;-1.696;2022-08-16T11:20:15;22.90;99.90
17174;DHT22;8702;48.130;-1.696;2022-08-16T11:22:42;22.90;99.90
17174;DHT22;8702;48.130;-1.696;2022-08-16T11:25:10;23.10;99.90
17174;DHT22;8702;48.130;-1.696;2022-08-16T11:27:39;23.10;99.90
17174;DHT22;8702;48.130;-1.696;2022-08-16T11:30:07;23.20;99.90
17174;DHT22;8702;48.130;-1.696;2022-08-16T11:32:35;23.30;99.90
17174;DHT22;8702;48.130;-1.696;2022-08-16T11:35:07;23.30;99.90
17174;DHT22;8702;48.130;-1.696;2022-08-16T11:37:35;23.50;99.90
17174;DHT22;8702;48.130;-1.696;2022-08-16T11:40:04;23.70;99.90
17174;DHT22;8702;48.130;-1.696;2022-08-16T11:42:31;23.70;99.90
17174;DHT22;8702;48.130;-1.696;2022-08-16T11:45:00;23.50;99.90
17174;DHT22;8702;48.130;-1.696;2022-08-16T11:47:27;23.60;99.90
17174;DHT22;8702;48.130;-1.696;2022-08-16T11:49:54;23.50;99.90
17174;DHT22;8702;48.130;-1.696;2022-08-16T11:52:21;23.50;99.90
17174;DHT22;8702;48.130;-1.696;2022-08-16T11:54:48;23.60;99.90
17174;DHT22;8702;48.130;-1.696;2022-08-16T11:57:15;23.70;99.90
17174;DHT22;8702;48.130;-1.696;2022-08-16T11:59:42;23.70;99.90
17174;DHT22;8702;48.130;-1.696;2022-08-16T12:02:11;23.80;99.90
17174;DHT22;8702;48.130;-1.696;2022-08-16T12:04:38;23.80;99.90
17174;DHT22;8702;48.130;-1.696;2022-08-16T12:07:05;23.80;99.90
17174;DHT22;8702;48.130;-1.696;2022-08-16T12:09:35;23.90;99.90
17174;DHT22;8702;48.130;-1.696;2022-08-16T12:12:02;24.00;99.90
17174;DHT22;8702;48.130;-1.696;2022-08-16T12:14:29;24.00;99.80
17174;DHT22;8702;48.130;-1.696;2022-08-16T12:16:58;24.00;99.90
17174;DHT22;8702;48.130;-1.696;2022-08-16T12:19:28;24.10;99.90
17174;DHT22;8702;48.130;-1.696;2022-08-16T12:21:55;24.20;99.70
17174;DHT22;8702;48.130;-1.696;2022-08-16T12:24:22;24.20;99.50
17174;DHT22;8702;48.130;-1.696;2022-08-16T12:26:50;24.10;99.40
17174;DHT22;8702;48.130;-1.696;2022-08-16T12:29:17;24.20;99.70
17174;DHT22;8702;48.130;-1.696;2022-08-16T12:31:44;24.30;99.50
17174;DHT22;8702;48.130;-1.696;2022-08-16T12:34:13;24.40;99.50
17174;DHT22;8702;48.130;-1.696;2022-08-16T12:36:41;24.50;99.00
17174;DHT22;8702;48.130;-1.696;2022-08-16T12:39:09;24.50;98.70
17174;DHT22;8702;48.130;-1.696;2022-08-16T12:41:36;24.50;97.20
17174;DHT22;8702;48.130;-1.696;2022-08-16T12:44:04;24.40;97.10
17174;DHT22;8702;48.130;-1.696;2022-08-16T12:46:31;24.40;97.90
17174;DHT22;8702;48.130;-1.696;2022-08-16T12:48:59;24.50;97.00
17174;DHT22;8702;48.130;-1.696;2022-08-16T12:51:28;24.50;96.00
17174;DHT22;8702;48.130;-1.696;2022-08-16T12:53:59;24.30;95.70
17174;DHT22;8702;48.130;-1.696;2022-08-16T12:56:30;24.20;96.50
17174;DHT22;8702;48.130;-1.696;2022-08-16T12:59:00;24.30;97.10
17174;DHT22;8702;48.130;-1.696;2022-08-16T13:01:29;24.30;95.30
17174;DHT22;8702;48.130;-1.696;2022-08-16T13:03:57;24.30;96.20
17174;DHT22;8702;48.130;-1.696;2022-08-16T13:06:26;24.30;95.50
17174;DHT22;8702;48.130;-1.696;2022-08-16T13:08:54;24.30;96.00
17174;DHT22;8702;48.130;-1.696;2022-08-16T13:11:32;24.30;95.70
17174;DHT22;8702;48.130;-1.696;2022-08-16T13:14:00;24.30;95.40
17174;DHT22;8702;48.130;-1.696;2022-08-16T13:16:27;24.30;95.80
17174;DHT22;8702;48.130;-1.696;2022-08-16T13:18:54;24.40;96.10
17174;DHT22;8702;48.130;-1.696;2022-08-16T13:21:21;24.60;95.90
17174;DHT22;8702;48.130;-1.696;2022-08-16T13:23:48;24.80;95.60
17174;DHT22;8702;48.130;-1.696;2022-08-16T13:26:15;24.90;94.60
17174;DHT22;8702;48.130;-1.696;2022-08-16T13:28:43;24.90;95.30
17174;DHT22;8702;48.130;-1.696;2022-08-16T13:31:10;25.00;95.60
17174;DHT22;8702;48.130;-1.696;2022-08-16T13:33:37;25.10;95.30
17174;DHT22;8702;48.130;-1.696;2022-08-16T13:36:06;25.20;95.20
17174;DHT22;8702;48.130;-1.696;2022-08-16T13:38:34;25.10;94.20
17174;DHT22;8702;48.130;-1.696;2022-08-16T13:41:03;25.10;94.50
17174;DHT22;8702;48.130;-1.696;2022-08-16T13:43:31;25.00;94.00
17174;DHT22;8702;48.130;-1.696;2022-08-16T13:46:00;24.90;93.90
17174;DHT22;8702;48.130;-1.696;2022-08-16T13:48:28;24.80;94.60
17174;DHT22;8702;48.130;-1.696;2022-08-16T13:50:56;24.90;94.50
17174;DHT22;8702;48.130;-1.696;2022-08-16T13:53:24;25.10;94.80
17174;DHT22;8702;48.130;-1.696;2022-08-16T13:55:53;25.30;94.60
17174;DHT22;8702;48.130;-1.696;2022-08-16T13:58:21;25.40;94.70
17174;DHT22;8702;48.130;-1.696;2022-08-16T14:00:48;25.40;94.40
17174;DHT22;8702;48.130;-1.696;2022-08-16T14:03:17;25.50;94.40
17174;DHT22;8702;48.130;-1.696;2022-08-16T14:05:45;25.60;94.40
17174;DHT22;8702;48.130;-1.696;2022-08-16T14:08:12;25.70;93.40
17174;DHT22;8702;48.130;-1.696;2022-08-16T14:10:39;25.80;93.60
17174;DHT22;8702;48.130;-1.696;2022-08-16T14:13:07;25.60;92.90
17174;DHT22;8702;48.130;-1.696;2022-08-16T14:15:35;25.40;92.90
17174;DHT22;8702;48.130;-1.696;2022-08-16T14:18:02;25.50;93.40
17174;DHT22;8702;48.130;-1.696;2022-08-16T14:20:30;25.60;93.10
17174;DHT22;8702;48.130;-1.696;2022-08-16T14:22:57;25.60;93.10
17174;DHT22;8702;48.130;-1.696;2022-08-16T14:25:24;25.40;92.30
17174;DHT22;8702;48.130;-1.696;2022-08-16T14:27:51;25.50;93.70
17174;DHT22;8702;48.130;-1.696;2022-08-16T14:30:19;26.00;93.10
17174;DHT22;8702;48.130;-1.696;2022-08-16T14:32:46;26.30;92.60
17174;DHT22;8702;48.130;-1.696;2022-08-16T14:35:15;26.40;91.70
17174;DHT22;8702;48.130;-1.696;2022-08-16T14:37:44;26.20;92.30
17174;DHT22;8702;48.130;-1.696;2022-08-16T14:40:13;26.30;92.40
17174;DHT22;8702;48.130;-1.696;2022-08-16T14:42:41;26.50;92.10
17174;DHT22;8702;48.130;-1.696;2022-08-16T14:45:11;26.80;93.10
17174;DHT22;8702;48.130;-1.696;2022-08-16T14:47:39;27.30;92.10
17174;DHT22;8702;48.130;-1.696;2022-08-16T14:50:09;27.60;90.70
17174;DHT22;8702;48.130;-1.696;2022-08-16T14:52:38;27.30;90.30
17174;DHT22;8702;48.130;-1.696;2022-08-16T14:55:07;27.00;90.80
17174;DHT22;8702;48.130;-1.696;2022-08-16T14:57:34;27.00;90.40
17174;DHT22;8702;48.130;-1.696;2022-08-16T15:00:04;27.20;90.70
17174;DHT22;8702;48.130;-1.696;2022-08-16T15:02:33;27.40;91.50
17174;DHT22;8702;48.130;-1.696;2022-08-16T15:05:01;27.50;90.40
17174;DHT22;8702;48.130;-1.696;2022-08-16T15:07:29;27.50;91.20
17174;DHT22;8702;48.130;-1.696;2022-08-16T15:09:56;27.40;90.50
17174;DHT22;8702;48.130;-1.696;2022-08-16T15:12:26;27.40;91.00
17174;DHT22;8702;48.130;-1.696;2022-08-16T15:14:53;27.60;90.10
17174;DHT22;8702;48.130;-1.696;2022-08-16T15:17:22;27.90;90.60
17174;DHT22;8702;48.130;-1.696;2022-08-16T15:19:52;28.20;89.20
17174;DHT22;8702;48.130;-1.696;2022-08-16T15:22:25;28.50;86.90
17174;DHT22;8702;48.130;-1.696;2022-08-16T15:24:55;28.80;84.50
17174;DHT22;8702;48.130;-1.696;2022-08-16T15:27:25;28.80;85.40
17174;DHT22;8702;48.130;-1.696;2022-08-16T15:29:53;28.40;85.10
17174;DHT22;8702;48.130;-1.696;2022-08-16T15:32:20;28.30;87.20
17174;DHT22;8702;48.130;-1.696;2022-08-16T15:34:48;28.30;87.10